createdAt,value
2019-02-25T00:02:38.927Z,5.90
2019-02-25T00:07:30.104Z,5.80
2019-02-25T00:12:21.737Z,5.80
2019-02-25T00:17:12.169Z,5.70
2019-02-25T00:22:03.217Z,5.60
2019-02-25T00:26:54.157Z,5.50
2019-02-25T00:31:46.202Z,5.50
2019-02-25T00:36:38.219Z,5.50
2019-02-25T00:41:30.019Z,5.50
2019-02-25T00:46:21.767Z,5.40
2019-02-25T00:51:13.573Z,5.40
2019-02-25T00:56:05.171Z,5.40
2019-02-25T01:00:57.102Z,5.40
2019-02-25T01:05:48.661Z,5.50
2019-02-25T01:10:40.574Z,5.40
2019-02-25T01:15:31.906Z,5.30
2019-02-25T01:20:21.858Z,5.20
2019-02-25T01:25:12.631Z,5.10
2019-02-25T01:30:04.355Z,5.10
2019-02-25T01:34:56.457Z,5.00
2019-02-25T01:39:48.349Z,4.80
2019-02-25T01:44:40.072Z,4.70
2019-02-25T01:49:31.797Z,4.60
2019-02-25T01:54:23.754Z,4.60
2019-02-25T01:59:14.806Z,4.50
2019-02-25T02:04:06.718Z,4.50
2019-02-25T02:08:58.339Z,4.50
2019-02-25T02:13:48.760Z,4.50
2019-02-25T02:18:40.754Z,4.50
2019-02-25T02:23:32.686Z,4.50
2019-02-25T02:28:24.840Z,4.70
2019-02-25T02:33:16.532Z,4.70
2019-02-25T02:38:08.334Z,4.70
2019-02-25T02:42:59.932Z,4.70
2019-02-25T02:47:51.550Z,4.70
2019-02-25T02:52:43.621Z,4.60
2019-02-25T02:57:35.452Z,4.60
2019-02-25T03:02:27.306Z,4.50
2019-02-25T03:07:18.931Z,4.50
2019-02-25T03:12:10.777Z,4.50
2019-02-25T03:17:02.434Z,4.50
2019-02-25T03:21:54.078Z,4.40
2019-02-25T03:26:46.064Z,4.40
2019-02-25T03:31:37.751Z,4.40
2019-02-25T03:36:28.295Z,4.30
2019-02-25T03:41:18.717Z,4.20
2019-02-25T03:46:10.354Z,4.10
2019-02-25T08:01:13.282Z,6.60
2019-02-25T08:06:05.844Z,6.70
2019-02-25T08:10:57.686Z,7.30
2019-02-25T08:15:49.478Z,8.20
2019-02-25T08:20:40.984Z,8.70
2019-02-25T08:25:32.586Z,9.30
2019-02-25T08:30:24.030Z,10.20
2019-02-25T08:35:16.635Z,11.10
2019-02-25T08:40:08.353Z,11.40
2019-02-25T08:45:00.158Z,11.80
2019-02-25T08:49:52.857Z,12.50
2019-02-25T08:54:45.297Z,12.90
2019-02-25T08:59:36.883Z,13.00
2019-02-25T09:04:28.980Z,13.60
2019-02-25T09:09:21.235Z,14.00
2019-02-25T09:14:12.574Z,14.20
2019-02-25T09:19:03.932Z,14.60
2019-02-25T09:23:55.588Z,15.00
2019-02-25T09:28:48.288Z,14.90
2019-02-25T09:33:40.542Z,15.10
2019-02-25T09:38:32.992Z,15.20
2019-02-25T09:43:24.163Z,15.30
2019-02-25T09:48:17.124Z,15.20
2019-02-25T09:53:09.132Z,15.30
2019-02-25T09:58:03.950Z,15.70
2019-02-25T10:02:55.204Z,16.10
2019-02-25T10:07:46.393Z,16.20
2019-02-25T10:12:38.322Z,16.30
2019-02-25T10:17:30.116Z,16.60
2019-02-25T10:22:21.595Z,16.90
2019-02-25T10:27:13.594Z,17.10
2019-02-25T10:32:08.296Z,17.50
2019-02-25T10:36:59.930Z,17.60
2019-02-25T10:41:59.429Z,17.80
2019-02-25T10:46:51.811Z,17.90
2019-02-25T10:51:46.218Z,18.10
2019-02-25T10:56:38.106Z,18.20
2019-02-25T11:01:30.222Z,18.60
2019-02-25T11:06:22.321Z,18.60
2019-02-25T11:11:24.732Z,18.30
2019-02-25T11:16:21.114Z,18.30
2019-02-25T11:21:12.820Z,18.50
2019-02-25T11:26:04.329Z,18.70
2019-02-25T11:31:12.421Z,18.70
2019-02-25T11:36:22.283Z,18.80
2019-02-25T11:41:12.192Z,18.90
2019-02-25T11:46:02.305Z,19.20
2019-02-25T11:50:54.368Z,19.50
2019-02-25T11:55:45.863Z,19.90
2019-02-25T12:00:40.299Z,20.30
2019-02-25T12:05:31.654Z,20.80
2019-02-25T12:10:22.871Z,20.70
2019-02-25T12:15:14.732Z,20.70
2019-02-25T12:20:06.453Z,20.90
2019-02-25T12:24:58.824Z,21.20
2019-02-25T12:29:51.145Z,21.90
2019-02-25T12:34:43.657Z,22.40
2019-02-25T12:39:36.187Z,23.00
2019-02-25T12:44:27.834Z,22.90
2019-02-25T12:49:19.767Z,22.90
2019-02-25T12:54:12.786Z,22.50
2019-02-25T12:59:06.293Z,22.10
2019-02-25T13:03:58.057Z,21.70
2019-02-25T13:08:50.377Z,22.00
2019-02-25T13:13:43.293Z,22.00
2019-02-25T13:18:36.039Z,22.10
2019-02-25T13:23:28.310Z,21.80
2019-02-25T13:28:26.117Z,22.30
2019-02-25T13:33:23.145Z,22.50
2019-02-25T13:38:15.276Z,22.30
2019-02-25T13:43:08.094Z,22.40
2019-02-25T13:48:01.045Z,22.50
2019-02-25T13:52:53.121Z,22.60
2019-02-25T13:57:47.566Z,22.40
2019-02-25T14:02:39.809Z,22.10
2019-02-25T14:07:34.223Z,22.00
2019-02-25T14:12:25.988Z,22.10
2019-02-25T14:17:18.924Z,22.10
2019-02-25T14:22:11.626Z,22.10
2019-02-25T14:27:04.345Z,22.50
2019-02-25T14:31:57.182Z,22.70
2019-02-25T14:36:55.350Z,22.60
2019-02-25T14:42:01.557Z,21.90
2019-02-25T14:47:05.253Z,21.20
2019-02-25T14:52:05.434Z,20.60
2019-02-25T14:56:57.995Z,20.20
2019-02-25T15:01:51.934Z,20.00
2019-02-25T15:06:43.319Z,19.70
2019-02-25T15:11:35.244Z,19.50
2019-02-25T15:16:27.200Z,19.30
2019-02-25T15:21:19.475Z,19.20
2019-02-25T15:26:11.834Z,19.00
2019-02-25T15:31:14.002Z,18.80
2019-02-25T15:36:06.680Z,18.70
2019-02-25T15:41:06.408Z,18.60
2019-02-25T15:46:00.676Z,18.50
2019-02-25T15:50:58.462Z,18.30
2019-02-25T15:55:51.462Z,18.30
2019-02-25T16:00:45.680Z,18.20
2019-02-25T16:05:39.553Z,18.10
2019-02-25T16:10:31.320Z,18.00
2019-02-25T16:15:23.939Z,17.90
2019-02-25T16:20:20.297Z,17.80
2019-02-25T16:25:12.424Z,17.70
2019-02-25T16:30:06.550Z,17.50
2019-02-25T16:35:04.605Z,17.30
2019-02-25T16:40:06.396Z,17.10
2019-02-25T16:45:09.151Z,17.00
2019-02-25T16:50:03.117Z,16.80
2019-02-25T16:54:55.206Z,16.60
2019-02-25T16:59:47.643Z,16.50
2019-02-25T17:04:39.836Z,16.30
2019-02-25T17:09:38.662Z,16.20
2019-02-25T17:14:33.348Z,15.90
2019-02-25T17:19:25.597Z,15.80
2019-02-25T17:24:18.248Z,15.60
2019-02-25T17:29:15.013Z,15.50
2019-02-25T17:34:06.852Z,15.30
2019-02-25T17:38:59.114Z,15.10
2019-02-25T17:43:54.429Z,15.00
2019-02-25T17:48:49.139Z,14.80
2019-02-25T17:53:41.255Z,14.80
2019-02-25T17:58:40.301Z,14.60
2019-02-25T18:03:39.523Z,14.50
2019-02-25T18:08:39.806Z,14.40
2019-02-25T18:13:35.555Z,14.20
2019-02-25T18:18:28.526Z,14.00
2019-02-25T18:23:22.502Z,13.80
2019-02-25T18:28:19.703Z,13.50
2019-02-25T18:33:12.900Z,13.40
2019-02-25T18:38:09.937Z,13.20
2019-02-25T18:43:04.385Z,13.00
2019-02-25T18:47:57.448Z,12.80
2019-02-25T18:52:55.125Z,12.60
2019-02-25T18:57:52.803Z,12.40
2019-02-25T19:02:44.144Z,12.20
2019-02-25T19:07:36.285Z,12.00
2019-02-25T19:12:28.062Z,11.90
2019-02-25T19:17:25.074Z,11.70
2019-02-25T19:22:20.827Z,11.60
2019-02-25T19:27:13.809Z,11.50
2019-02-25T19:32:05.578Z,11.40
2019-02-25T19:37:06.651Z,11.30
2019-02-25T19:42:03.117Z,11.20
2019-02-25T19:46:56.706Z,11.10
2019-02-25T19:51:52.911Z,10.90
2019-02-25T19:56:50.680Z,10.80
2019-02-25T20:01:46.615Z,10.80
2019-02-25T20:06:40.450Z,10.70
2019-02-25T20:11:38.259Z,10.60
2019-02-25T20:16:32.914Z,10.50
2019-02-25T20:21:30.828Z,10.50
2019-02-25T20:26:26.919Z,10.40
2019-02-25T20:31:17.800Z,10.30
2019-02-25T20:36:09.643Z,10.10
2019-02-25T20:41:03.412Z,9.80
2019-02-25T20:46:01.436Z,9.70
2019-02-25T20:51:07.235Z,9.50
2019-02-25T20:56:00.859Z,9.40
2019-02-25T21:00:52.722Z,9.20
2019-02-25T21:05:44.881Z,9.00
2019-02-25T21:10:37.300Z,8.90
2019-02-25T21:15:29.023Z,8.80
2019-02-25T21:20:29.696Z,8.60
2019-02-25T21:25:29.043Z,8.50
2019-02-25T21:30:26.767Z,8.50
2019-02-25T21:35:18.312Z,8.40
2019-02-25T21:40:10.088Z,8.40
2019-02-25T21:45:03.260Z,8.30
2019-02-25T21:50:01.265Z,8.20
2019-02-25T21:55:04.703Z,8.20
2019-02-25T22:00:05.522Z,8.00
2019-02-25T22:04:56.025Z,8.00
2019-02-25T22:09:47.825Z,7.90
2019-02-25T22:14:43.233Z,7.70
2019-02-25T22:19:45.742Z,7.70
2019-02-25T22:24:41.384Z,7.60
2019-02-25T22:29:36.470Z,7.50
2019-02-25T22:34:32.475Z,7.40
2019-02-25T22:39:30.063Z,7.30
2019-02-25T22:44:27.317Z,7.20
2019-02-25T22:49:30.385Z,7.20
2019-02-25T22:54:22.436Z,7.10
2019-02-25T22:59:14.068Z,7.00
2019-02-25T23:04:05.855Z,7.00
2019-02-25T23:08:57.869Z,6.90
2019-02-25T23:13:54.922Z,6.70
2019-02-25T23:18:47.683Z,6.70
2019-02-25T23:23:40.946Z,6.60
2019-02-25T23:28:32.211Z,6.50
2019-02-25T23:33:25.446Z,6.40
2019-02-25T23:38:16.691Z,6.20
2019-02-25T23:43:14.426Z,6.20
2019-02-25T23:48:12.268Z,6.10
2019-02-25T23:53:03.234Z,6.00
2019-02-25T23:57:55.125Z,6.00
